Combs, Arkansas
Current Conditions -  °F | °C
As of 1:53 AM on Thursday 18 Dec 2014 (Local Time) from KFYV Reporting Station
Overcast Overcast  
Wind Chill: 37°   Ceiling: 2900
Heat Index: 37°   Visibility: 10mi
Dew Point: 34°   Wind: 3mph
Humidity: 89%   Direction: 90°E
Pressure: 30.15"   Gusts: NA
Location:  35.83°N, 93.84°W
Report Text: KFYV 180753Z AUTO 09003KT 10SM OVC029 03/01 A3015 RMK AO2 RAB03E18 SLP217 P0000 T00280011
Loading
Personal Weather Stations






























Interactive Weather Map New forecast layout! Learn more

10-Day Weather Forecast

Advertisements
Track Severe Weather on mobile